Terminal Aerodrome Forecast
Issued by NWS

Home | Current Version | Previous Version | Text Only | Print | Product List | Glossary On
Versions: 1 2 3 4 5 6 7 8 9 10 11 12 13 14 15 16
000
FTUS42 KMLB 011500 AAB
TAFSUA
TAF AMD
KSUA 011507Z 0115/0212 23006KT P6SM VCSH SCT012 SCT040
      TEMPO 0115/0118 5SM SHRA BKN030
     FM011800 27005KT P6SM VCSH SCT015 BKN030
     FM012100 08008KT P6SM VCTS SCT025CB BKN060
     FM012300 VRB03KT P6SM FEW025 SCT100 SCT250=

USA.gov is the U.S. government's official web portal to all federal, state and local government web resources and services.